Big Horn, WY (82833)

2:04 AM MDT on September 01, 2014 (GMT -0600)
Sheridan County | Change Station
CLOSE
Current Station
Airport
Location: Sheridan,
Elevation: 3967 ft
Nearby Weather Stations

Elev 3967 ft 44.76 °N, 106.97 °W | Updated 11 minutes ago

Overcast
Overcast
51 °F
Feels Like 51 °F
N
14
Wind Variable Wind from WNW

Today
High -- | Low -- °F
--% Chance of Precip.
Yesterday
High -- | Low -- °F
Precip. -- in
6:30 AM 7:44 PM
Waxing Crescent, 38% visible
Pressure 29.91 in
Visibility 10.0 miles
Clouds Overcast 8500 ft
Dew Point 45 °F
Humidity 80%
Rainfall 0.00 in
Snow Depth Not available.
UV 0 out of 12
Pollen 5.60 out of 12
Air Quality Not available.
Flu Activity Not available.
METAR KSHR 010753Z AUTO 30012KT 10SM OVC085 11/07 A2996 RMK AO2 SLP128 T01060072

More Conditions Fewer Conditions

Pressure 29.91 in
Visibility 10.0 miles
Clouds Overcast 8500 ft
Dew Point 45 °F
Humidity 80%
Rainfall 0.00 in
Snow Depth Not available.
UV 0 out of 12
Pollen 5.60 out of 12
Air Quality Not available.
Flu Activity Not available.
METAR KSHR 010753Z AUTO 30012KT 10SM OVC085 11/07 A2996 RMK AO2 SLP128 T01060072

More Conditions Fewer Conditions

10-Day Weather Forecast

Almanac

Astronomy

Sep. 01, 2014 Rise Set
Actual Time 6:30 AM MDT 7:44 PM MDT
Civil Twilight 6:00 AM MDT 8:14 PM MDT
Nautical Twilight 5:24 AM MDT 8:50 PM MDT
Astronomical Twilight 4:45 AM MDT 9:28 PM MDT
Moon 1:35 PM MDT 11:31 PM MDT
Length of Visible Light 14h 14m
Length of Day
13h 14m
Tomorrow will be 3m 0s shorter.
Waxing Crescent, 38% of the Moon is Illuminated
Today
Waxing Crescent
Sep 2
First Quarter
Sep 8
Full
Sep 15
Last Quarter
Sep 24
New

Today's Extremes

State Highs State Lows

Community

WunderPhotos

Upload Photos

1,749,175 photos uploaded!

Nearby

Snow Depth

Station Depth Elevation
Casper Mountain 1 in 7850 ft
Reno Hill 0 in 8500 ft
Sylvan Lake 0 in 8420 ft
Townsend Creek 0 in 8700 ft
Gunsight Pass 1 in 9820 ft

Earthquake Activity

City Distance Mag. Time & Date
No recent earthquake activity has been reported nearby.
Minimum magnitude displayed is 2.5.

Coastal Water Temperatures

Place Temperature
No Stations Reporting

Nearby Weather Stations